Flight Track Log - Related Links

Times and Time Zones

All times are in EDT time to prevent confusion due to time zone crossing. See the N589H flight status page for this flight to view local times or setup timezone preferences in your user account.

Time Position Orientation Groundspeed Altitude Reporting Facility
EDT Latitude Longitude Course Direction KTS MPH feet Rate Location/Type
Wed 01:16:18 PM 25.8078 -80.2681 44° Northeast 164 189 800  Level Miami Center
Wed 01:16:49 PM 25.8258 -80.2486 44° Northeast 176 203 1,900 2,022 Climbing Miami Center
Wed 01:17:50 PM 25.8633 -80.2144 39° Northeast 186 214 3,900 1,786 Climbing Miami Center
Wed 01:18:13 PM 25.8803 -80.2119 North 197 227 4,400 1,745 Climbing Miami Center
Wed 01:18:45 PM 25.9183 -80.2094 North 222 255 5,500 1,548 Climbing Miami Center
Wed 01:19:15 PM 25.9417 -80.2067 North 223 257 6,000 1,377 Climbing Miami Center
Wed 01:19:46 PM 25.9847 -80.2169 348° North 264 304 6,900 1,355 Climbing Miami Center
Wed 01:20:17 PM 25.9942 -80.2411 294° West 257 296 7,400 1,613 Climbing Miami Center
Wed 01:21:19 PM 26.0169 -80.3350 285° West 264 304 9,400 1,935 Climbing Miami Center
Wed 01:22:21 PM 26.0353 -80.4083 286° West 249 287 11,400 1,984 Climbing Miami Center
Wed 01:23:23 PM 26.0514 -80.4786 284° West 240 276 13,500 1,839 Climbing Miami Center
Wed 01:24:25 PM 26.0736 -80.5447 291° West 235 270 15,200 1,210 Climbing Miami Center
Wed 01:25:27 PM 26.1250 -80.5981 317° Northwest 254 292 16,000 387 Climbing Miami Center
Wed 01:26:29 PM 26.2075 -80.6572 327° Northwest 296 341 16,000  Level Miami Center
Wed 01:27:31 PM 26.2828 -80.7139 326° Northwest 318 366 16,000 484 Level Miami Center
Wed 01:28:33 PM 26.3608 -80.7725 326° Northwest 312 359 17,000 919 Climbing Miami Center
Wed 01:29:35 PM 26.4292 -80.8233 326° Northwest 298 343 17,900 968 Climbing Miami Center
Wed 01:30:37 PM 26.5000 -80.8764 326° Northwest 285 328 19,000 960 Climbing Miami Center
Wed 01:31:40 PM 26.5642 -80.9253 326° Northwest 283 326 19,900 480 Climbing Miami Center
Wed 01:32:42 PM 26.6353 -80.9792 326° Northwest 299 344 20,000 48 Climbing Miami Center
Wed 01:33:44 PM 26.7119 -81.0375 326° Northwest 317 365 20,000  Level Miami Center
Wed 01:34:46 PM 26.7731 -81.0847 325° Northwest 326 375 20,000  Level Miami Center
Wed 01:35:48 PM 26.8633 -81.1544 325° Northwest 327 376 20,000  Level Miami Center
Wed 01:36:50 PM 26.9397 -81.2119 326° Northwest 328 377 20,000  Level Miami Center
Wed 01:37:52 PM 27.0167 -81.2703 326° Northwest 330 380 20,000  Level Miami Center
Wed 01:38:54 PM 27.0942 -81.3281 326° Northwest 332 382 20,000 -97 Level Miami Center
Wed 01:39:56 PM 27.1789 -81.3917 326° Northwest 333 383 19,800 -585 Descending Miami Center
Wed 01:40:57 PM 27.2594 -81.4539 326° Northwest 332 382 18,800 -976 Descending Miami Center
Wed 01:41:59 PM 27.3386 -81.5144 326° Northwest 331 381 17,800 -968 Descending Miami Center
Wed 01:43:01 PM 27.3972 -81.5892 311° West 336 387 16,800 -919 Descending Miami Center
Wed 01:44:03 PM 27.4419 -81.6817 299° West 335 386 15,900 -919 Descending Miami Center
Wed 01:45:05 PM 27.4861 -81.7750 298° West 336 387 14,900 -968 Descending Miami Center
Wed 01:46:07 PM 27.5303 -81.8689 298° West 337 388 13,900 -919 Descending Miami Center
Wed 01:47:09 PM 27.5733 -81.9631 297° West 337 388 13,000 -919 Descending Miami Center
Wed 01:48:11 PM 27.6181 -82.0586 298° West 336 387 12,000 -968 Descending Miami Center
Wed 01:49:13 PM 27.6650 -82.1528 299° West 333 383 11,000 -1,016 Descending Miami Center
Wed 01:50:15 PM 27.7475 -82.2328 319° Northwest 326 375 9,900 -1,016 Descending Miami Center
Wed 01:51:17 PM 27.8144 -82.3000 318° Northwest 325 374 8,900 -968 Descending Miami Center
Wed 01:52:19 PM 27.8789 -82.3644 319° Northwest 311 358 7,900 -919 Descending Miami Center
Wed 01:53:21 PM 27.9528 -82.3956 340° North 291 335 7,000 -1,016 Descending Miami Center
Wed 01:54:23 PM 28.0114 -82.4389 327° Northwest 275 316 5,800 -1,065 Descending Miami Center
Wed 01:55:25 PM 28.0078 -82.5186 267° West 267 307 4,800 -1,016 Descending Miami Center
Wed 01:56:27 PM 28.0172 -82.6111 277° West 258 297 3,700 -1,016 Descending Miami Center
Wed 01:57:29 PM 28.0414 -82.6697 295° West 228 262 2,700 -818 Descending Miami Center
Wed 01:58:39 PM 28.0333 -82.7167 259° West 154 177 1,900 -532 Descending Tampa TRACON
Wed 01:59:33 PM 28.0000 -82.7000 156° South 125 144 1,600 -500 Descending Tampa TRACON
Wed 02:00:39 PM 27.9667 -82.7000 180° South 121 139 900 -636 Descending Tampa TRACON
Wed 02:03:00 PM 27.9100 -82.6875 211° Southwest  Level Estimated
Wed 02:10:00 PM 27.9100 -82.6875 211° Southwest  Level Estimated
Wed 02:11:00 PM 27.9100 -82.6875 160° South  Level Estimated

Login

Don't have an account? Register now (free) for customized features, flight alerts, and more!